Time;durP1;ratioP1;P1;durP2;ratioP2;P2;SDS_P1;SDS_P2;PMS_P1;PMS_P2;Temp;Humidity;BMP_temperature;BMP_pressure;BME280_temperature;BME280_humidity;BME280_pressure;Samples;Min_cycle;Max_cycle;Signal;HPM_P1;HPM_P2
2023/12/08 00:00:09;;;;;;;27.60;12.37;;;3.30;99.90;;;;;;6213347;23;20389;-66
2023/12/08 00:02:36;;;;;;;28.03;13.13;;;3.30;99.90;;;;;;6212840;23;20425;-65
2023/12/08 00:05:03;;;;;;;26.27;12.90;;;3.40;99.90;;;;;;6213287;23;20385;-64
2023/12/08 00:07:30;;;;;;;32.83;11.00;;;3.40;99.90;;;;;;6213969;23;20460;-63
2023/12/08 00:09:57;;;;;;;28.90;11.83;;;3.40;99.90;;;;;;6213317;23;20412;-66
2023/12/08 00:12:24;;;;;;;31.00;12.97;;;3.40;99.90;;;;;;6212891;23;20408;-64
2023/12/08 00:14:51;;;;;;;33.80;12.40;;;3.30;99.90;;;;;;6212845;23;20397;-62
2023/12/08 00:17:19;;;;;;;28.23;13.90;;;3.30;99.90;;;;;;6212861;23;20496;-68
2023/12/08 00:19:46;;;;;;;30.43;14.83;;;3.30;99.90;;;;;;6213552;23;20401;-68
2023/12/08 00:22:13;;;;;;;27.30;13.83;;;3.30;99.90;;;;;;6213663;23;20539;-65
2023/12/08 00:24:40;;;;;;;26.27;14.00;;;3.30;99.90;;;;;;6213911;23;20392;-66
2023/12/08 00:27:08;;;;;;;26.07;12.70;;;3.30;99.90;;;;;;6214236;23;20400;-67
2023/12/08 00:29:35;;;;;;;36.93;15.10;;;3.30;99.90;;;;;;6213840;23;20409;-64
2023/12/08 00:32:01;;;;;;;28.07;13.87;;;3.30;99.90;;;;;;6213934;23;20406;-68
2023/12/08 00:34:30;;;;;;;30.43;13.17;;;3.30;99.90;;;;;;6213798;23;20429;-65
2023/12/08 00:36:57;;;;;;;28.07;12.00;;;3.30;99.90;;;;;;6213927;23;20389;-65
2023/12/08 00:39:24;;;;;;;33.13;14.17;;;3.30;99.90;;;;;;6213896;23;20468;-67
2023/12/08 00:41:51;;;;;;;32.83;11.87;;;3.20;99.90;;;;;;6214081;23;20385;-64
2023/12/08 00:44:18;;;;;;;31.37;14.20;;;3.20;99.90;;;;;;6213647;23;20384;-68
2023/12/08 00:46:45;;;;;;;35.53;15.37;;;3.20;99.90;;;;;;6213656;23;20443;-66
2023/12/08 00:49:11;;;;;;;31.70;13.07;;;3.20;99.90;;;;;;6213828;23;20369;-67
2023/12/08 00:51:40;;;;;;;34.33;14.80;;;3.30;99.90;;;;;;6213732;23;20393;-64
2023/12/08 00:54:07;;;;;;;38.87;13.60;;;3.30;99.90;;;;;;6213663;23;20419;-65
2023/12/08 00:56:34;;;;;;;31.53;15.67;;;3.20;99.90;;;;;;6214025;23;20485;-64
2023/12/08 00:59:00;;;;;;;36.23;14.40;;;3.30;99.90;;;;;;6212636;23;20436;-67
2023/12/08 01:01:27;;;;;;;34.17;12.57;;;3.30;99.90;;;;;;6213445;23;20373;-62
2023/12/08 01:03:54;;;;;;;28.97;14.40;;;3.40;99.90;;;;;;6213362;23;20440;-67
2023/12/08 01:06:22;;;;;;;32.93;15.13;;;3.30;99.90;;;;;;6213567;23;20401;-62
2023/12/08 01:08:50;;;;;;;30.17;14.00;;;3.30;99.90;;;;;;6213951;23;20396;-64
2023/12/08 01:11:18;;;;;;;34.17;14.40;;;3.30;99.90;;;;;;6213555;23;20424;-65
2023/12/08 01:13:45;;;;;;;33.23;14.80;;;3.40;99.90;;;;;;6213723;23;20420;-65
2023/12/08 01:16:12;;;;;;;34.70;18.13;;;3.30;99.90;;;;;;6213443;23;20389;-66
2023/12/08 01:18:38;;;;;;;28.67;12.17;;;3.30;99.90;;;;;;6213101;23;20431;-66
2023/12/08 01:21:06;;;;;;;30.40;14.17;;;3.30;99.90;;;;;;6213757;23;20396;-62
2023/12/08 01:23:32;;;;;;;34.73;14.17;;;3.30;99.90;;;;;;6212823;23;20453;-64
2023/12/08 01:26:01;;;;;;;33.57;13.13;;;3.30;99.90;;;;;;6212929;23;20405;-68
2023/12/08 01:28:28;;;;;;;33.07;14.53;;;3.40;99.90;;;;;;6213335;23;20868;-66
2023/12/08 01:30:54;;;;;;;34.53;14.67;;;3.40;99.90;;;;;;6213070;23;20436;-69
2023/12/08 01:33:21;;;;;;;33.13;13.50;;;3.30;99.90;;;;;;6213176;23;20384;-61
2023/12/08 01:35:48;;;;;;;32.13;13.00;;;3.30;99.90;;;;;;6212814;23;20413;-67
2023/12/08 01:38:15;;;;;;;32.30;14.00;;;3.30;99.90;;;;;;6212882;23;20389;-69
2023/12/08 01:40:44;;;;;;;31.13;13.87;;;3.30;99.90;;;;;;6213465;23;20381;-65
2023/12/08 01:43:12;;;;;;;34.67;14.20;;;3.30;99.90;;;;;;6213242;23;20460;-64
2023/12/08 01:45:40;;;;;;;33.23;15.47;;;3.30;99.90;;;;;;6213440;23;20389;-67
2023/12/08 01:48:08;;;;;;;30.77;13.93;;;3.30;99.90;;;;;;6214690;23;20424;-65
2023/12/08 01:50:35;;;;;;;33.93;14.20;;;3.30;99.90;;;;;;6215357;23;20416;-65
2023/12/08 01:53:03;;;;;;;29.67;12.80;;;3.30;99.90;;;;;;6215217;23;20409;-66
2023/12/08 01:55:33;;;;;;;25.70;12.20;;;3.30;99.90;;;;;;6215115;23;20499;-65
2023/12/08 01:58:00;;;;;;;28.80;11.57;;;3.20;99.90;;;;;;6215347;23;20411;-63
2023/12/08 02:00:29;;;;;;;30.73;13.67;;;3.20;99.90;;;;;;6215045;23;20481;-64
2023/12/08 02:02:57;;;;;;;35.03;15.30;;;3.20;99.90;;;;;;6214928;23;20424;-66
2023/12/08 02:05:25;;;;;;;37.47;13.60;;;3.20;99.90;;;;;;6214889;23;20506;-67
2023/12/08 02:07:53;;;;;;;32.87;12.87;;;3.10;99.90;;;;;;6215083;23;20377;-69
2023/12/08 02:10:20;;;;;;;33.90;12.20;;;3.10;99.90;;;;;;6215025;23;20415;-68
2023/12/08 02:12:47;;;;;;;35.50;14.60;;;3.20;99.90;;;;;;6214452;23;20420;-66
2023/12/08 02:15:14;;;;;;;32.40;14.00;;;3.20;99.90;;;;;;6214868;23;20497;-68
2023/12/08 02:17:43;;;;;;;36.10;15.17;;;3.20;99.90;;;;;;6215093;23;20412;-68
2023/12/08 02:20:11;;;;;;;33.33;13.47;;;3.20;99.90;;;;;;6215266;23;20391;-67
2023/12/08 02:22:38;;;;;;;31.63;15.10;;;3.20;99.90;;;;;;6215259;23;20440;-69
2023/12/08 02:25:08;;;;;;;35.10;14.20;;;3.20;99.90;;;;;;6214858;23;20409;-67
2023/12/08 02:27:35;;;;;;;38.53;14.03;;;3.20;99.90;;;;;;6215216;23;20405;-67
2023/12/08 02:30:02;;;;;;;31.47;13.70;;;3.20;99.90;;;;;;6215028;23;20416;-66
2023/12/08 02:35:08;;;;;;;30.57;14.00;;;3.20;99.90;;;;;;6212975;23;20487;-66
2023/12/08 02:37:42;;;;;;;38.27;15.87;;;3.50;99.90;;;;;;6214467;23;20423;-65
2023/12/08 02:40:11;;;;;;;41.93;13.90;;;1.70;99.90;;;;;;6213970;23;20388;-64
2023/12/08 02:42:38;;;;;;;36.77;13.30;;;3.20;99.90;;;;;;6214143;23;20448;-65
2023/12/08 02:45:06;;;;;;;28.47;14.40;;;3.30;99.90;;;;;;6214055;23;20397;-66
2023/12/08 02:47:33;;;;;;;39.73;16.50;;;3.30;99.90;;;;;;6213507;23;20400;-66
2023/12/08 02:50:00;;;;;;;31.20;15.20;;;3.30;99.90;;;;;;6213998;23;20433;-65
2023/12/08 02:52:27;;;;;;;40.13;16.23;;;3.30;99.90;;;;;;6213773;23;20397;-64
2023/12/08 02:54:53;;;;;;;28.47;13.10;;;3.30;99.90;;;;;;6213269;23;20412;-68
2023/12/08 02:57:22;;;;;;;38.60;15.83;;;3.30;99.90;;;;;;6213531;23;20405;-65
2023/12/08 02:59:48;;;;;;;34.50;14.70;;;3.40;99.90;;;;;;6213303;23;20395;-65
2023/12/08 03:02:15;;;;;;;36.27;14.53;;;3.40;99.90;;;;;;6213906;23;20416;-66
2023/12/08 03:04:42;;;;;;;37.33;14.30;;;3.50;99.90;;;;;;6214059;23;20452;-67
2023/12/08 03:07:12;;;;;;;27.27;12.77;;;3.50;99.90;;;;;;6213885;23;20393;-64
2023/12/08 03:09:38;;;;;;;37.37;13.90;;;3.50;99.90;;;;;;6213541;23;20424;-68
2023/12/08 03:12:06;;;;;;;40.10;14.70;;;3.50;99.90;;;;;;6213622;23;20400;-67
2023/12/08 03:14:34;;;;;;;31.07;15.10;;;3.50;99.90;;;;;;6213249;23;20421;-65
2023/12/08 03:17:01;;;;;;;30.40;13.70;;;3.50;99.90;;;;;;6213453;23;20385;-64
2023/12/08 03:19:28;;;;;;;34.77;15.80;;;3.50;99.90;;;;;;6213911;23;20401;-65
2023/12/08 03:21:57;;;;;;;29.70;12.77;;;3.50;99.90;;;;;;6214055;23;20389;-65
2023/12/08 03:24:26;;;;;;;35.27;14.80;;;3.50;99.90;;;;;;6213648;23;20425;-63
2023/12/08 03:26:52;;;;;;;30.47;12.90;;;3.50;99.90;;;;;;6213965;23;20440;-66
2023/12/08 03:29:19;;;;;;;33.90;16.07;;;3.50;99.90;;;;;;6214123;23;20417;-68
2023/12/08 03:31:50;;;;;;;45.27;17.23;;;3.60;99.90;;;;;;6214103;23;20419;-64
2023/12/08 03:34:18;;;;;;;31.63;13.97;;;3.60;99.90;;;;;;6213617;23;20473;-64
2023/12/08 03:36:45;;;;;;;36.30;15.40;;;3.50;99.90;;;;;;6213864;23;20392;-67
2023/12/08 03:39:12;;;;;;;33.90;15.13;;;3.50;99.90;;;;;;6213826;23;20440;-64
2023/12/08 03:41:39;;;;;;;29.47;14.30;;;3.50;99.90;;;;;;6213801;23;20393;-69
2023/12/08 03:44:05;;;;;;;40.70;14.80;;;3.60;99.90;;;;;;6213719;23;20445;-65
2023/12/08 03:46:31;;;;;;;33.57;14.00;;;3.60;99.90;;;;;;6214011;23;20918;-64
2023/12/08 03:49:00;;;;;;;32.17;14.00;;;3.60;99.90;;;;;;6213578;23;20165;-66
2023/12/08 03:51:27;;;;;;;26.97;13.03;;;3.60;99.90;;;;;;6213377;23;20429;-65
2023/12/08 03:53:53;;;;;;;37.57;16.70;;;3.60;99.90;;;;;;6213841;23;20404;-65
2023/12/08 03:56:20;;;;;;;33.47;15.17;;;3.60;99.90;;;;;;6213653;23;20695;-68
2023/12/08 03:58:47;;;;;;;33.13;14.17;;;3.60;99.90;;;;;;6213744;23;20389;-66
2023/12/08 04:01:17;;;;;;;29.53;14.23;;;3.60;99.90;;;;;;6213270;23;20425;-65
2023/12/08 04:03:44;;;;;;;31.37;13.47;;;3.60;99.90;;;;;;6213561;23;20449;-62
2023/12/08 04:06:12;;;;;;;30.47;13.97;;;3.70;99.90;;;;;;6213320;23;20384;-66
2023/12/08 04:08:40;;;;;;;27.33;14.00;;;3.70;99.90;;;;;;6213711;23;20405;-70
2023/12/08 04:11:07;;;;;;;28.80;14.10;;;3.70;99.90;;;;;;6212932;23;20432;-69
2023/12/08 04:13:34;;;;;;;42.90;14.63;;;3.70;99.90;;;;;;6213185;23;20415;-68
2023/12/08 04:16:01;;;;;;;35.37;17.73;;;3.70;99.90;;;;;;6212865;23;20421;-68
2023/12/08 04:18:28;;;;;;;27.90;13.57;;;3.70;99.90;;;;;;6212408;23;20393;-65
2023/12/08 04:20:55;;;;;;;33.93;17.00;;;3.60;99.90;;;;;;6212809;23;20705;-66
2023/12/08 04:23:23;;;;;;;35.57;12.77;;;3.60;99.90;;;;;;6212773;23;20447;-66
2023/12/08 04:25:50;;;;;;;32.60;13.00;;;3.60;99.90;;;;;;6212522;23;20403;-66
2023/12/08 04:28:17;;;;;;;31.23;14.40;;;3.70;99.90;;;;;;6212335;23;20447;-63
2023/12/08 04:30:44;;;;;;;30.27;12.37;;;3.70;99.90;;;;;;6212979;23;20423;-65
2023/12/08 04:33:11;;;;;;;33.93;14.27;;;3.60;99.90;;;;;;6212869;23;20404;-60
2023/12/08 04:35:38;;;;;;;26.17;14.80;;;3.70;99.90;;;;;;6212759;23;20408;-68
2023/12/08 04:38:05;;;;;;;24.87;14.93;;;3.60;99.90;;;;;;6213255;23;20399;-63
2023/12/08 04:40:33;;;;;;;37.67;13.90;;;3.60;99.90;;;;;;6213184;23;20447;-65
2023/12/08 04:43:00;;;;;;;30.03;14.40;;;3.70;99.90;;;;;;6213204;23;20411;-62
2023/12/08 04:45:27;;;;;;;38.43;16.97;;;3.70;99.90;;;;;;6213103;23;20420;-64
2023/12/08 04:47:54;;;;;;;29.97;13.50;;;3.70;99.90;;;;;;6213008;23;20385;-69
2023/12/08 04:50:20;;;;;;;32.57;14.30;;;3.70;99.90;;;;;;6213076;23;20405;-65
2023/12/08 04:52:47;;;;;;;35.43;15.30;;;3.60;99.90;;;;;;6213069;23;20413;-61
2023/12/08 04:55:14;;;;;;;26.50;14.37;;;3.60;99.90;;;;;;6212484;23;20404;-63
2023/12/08 04:57:42;;;;;;;28.20;13.07;;;3.60;99.90;;;;;;6212206;23;20417;-65
2023/12/08 05:00:10;;;;;;;28.23;14.53;;;3.60;99.90;;;;;;6212351;23;20457;-66
2023/12/08 05:02:37;;;;;;;33.07;15.97;;;3.60;99.90;;;;;;6212541;23;20440;-66
2023/12/08 05:05:04;;;;;;;28.37;13.90;;;3.60;99.90;;;;;;6212357;23;20440;-66
2023/12/08 05:07:31;;;;;;;37.43;16.30;;;3.60;99.90;;;;;;6212851;23;20405;-65
2023/12/08 05:09:58;;;;;;;35.27;13.77;;;3.60;99.90;;;;;;6211852;23;20400;-65
2023/12/08 05:12:25;;;;;;;38.67;16.30;;;3.70;99.90;;;;;;6213332;23;20409;-65
2023/12/08 05:14:53;;;;;;;29.90;14.10;;;3.60;99.90;;;;;;6213363;23;20393;-63
2023/12/08 05:17:20;;;;;;;27.47;14.40;;;3.60;99.90;;;;;;6212854;23;20413;-68
2023/12/08 05:19:47;;;;;;;36.30;15.50;;;3.60;99.90;;;;;;6212819;23;20400;-68
2023/12/08 05:22:14;;;;;;;30.50;13.50;;;3.60;99.90;;;;;;6212318;23;20423;-66
2023/12/08 05:24:41;;;;;;;31.27;17.70;;;3.60;99.90;;;;;;6212809;23;20433;-68
2023/12/08 05:27:08;;;;;;;28.17;13.77;;;3.60;99.90;;;;;;6212411;23;20389;-69
2023/12/08 05:29:35;;;;;;;25.43;13.43;;;3.60;99.90;;;;;;6212047;23;20417;-67
2023/12/08 05:32:03;;;;;;;30.10;15.13;;;3.50;99.90;;;;;;6212154;23;20416;-68
2023/12/08 05:34:30;;;;;;;33.87;14.90;;;3.50;99.90;;;;;;6211879;23;20405;-69
2023/12/08 05:36:57;;;;;;;28.90;13.57;;;3.50;99.90;;;;;;6212280;23;20411;-69
2023/12/08 05:39:26;;;;;;;23.27;11.70;;;3.50;99.90;;;;;;6212459;23;20475;-64
2023/12/08 05:41:53;;;;;;;26.37;14.50;;;3.60;99.90;;;;;;6212178;23;20417;-68
2023/12/08 05:44:21;;;;;;;32.47;16.57;;;3.60;99.90;;;;;;6211717;23;20452;-67
2023/12/08 05:46:48;;;;;;;29.90;15.37;;;3.60;99.90;;;;;;6212198;23;20416;-68
2023/12/08 05:49:17;;;;;;;32.97;15.43;;;3.60;99.90;;;;;;6212380;23;20405;-66
2023/12/08 05:51:44;;;;;;;29.83;15.63;;;3.50;99.90;;;;;;6212766;23;20424;-65
2023/12/08 05:54:14;;;;;;;25.07;15.27;;;3.50;99.90;;;;;;6212728;23;20413;-64
2023/12/08 05:56:41;;;;;;;34.37;16.33;;;3.50;99.90;;;;;;6212749;23;20468;-70
2023/12/08 05:59:08;;;;;;;32.80;17.27;;;3.60;99.90;;;;;;6213278;23;20436;-68
2023/12/08 06:01:35;;;;;;;30.47;14.90;;;3.60;99.90;;;;;;6213220;23;20389;-64
2023/12/08 06:04:02;;;;;;;33.30;14.90;;;3.50;99.90;;;;;;6212443;23;20445;-65
2023/12/08 06:06:31;;;;;;;24.43;12.03;;;3.60;99.90;;;;;;6212252;23;20436;-65
2023/12/08 06:08:58;;;;;;;30.43;15.93;;;3.60;99.90;;;;;;6212836;23;20413;-65
2023/12/08 06:11:24;;;;;;;32.03;15.57;;;3.50;99.90;;;;;;6212565;23;20412;-66
2023/12/08 06:13:51;;;;;;;34.80;15.27;;;3.60;99.90;;;;;;6212175;23;20393;-68
2023/12/08 06:16:18;;;;;;;29.77;14.73;;;3.60;99.90;;;;;;6212736;23;20468;-68
2023/12/08 06:18:46;;;;;;;30.97;13.93;;;3.60;99.90;;;;;;6212690;23;20377;-65
2023/12/08 06:21:13;;;;;;;28.40;13.53;;;3.60;99.90;;;;;;6212547;23;20471;-68
2023/12/08 06:23:41;;;;;;;30.63;15.53;;;3.50;99.90;;;;;;6212883;23;20440;-66
2023/12/08 06:26:08;;;;;;;22.60;13.43;;;3.50;99.90;;;;;;6212633;23;20396;-69
2023/12/08 06:28:35;;;;;;;25.03;12.73;;;3.50;99.90;;;;;;6212734;23;20428;-67
2023/12/08 06:31:02;;;;;;;34.67;15.00;;;3.50;99.90;;;;;;6211898;23;20412;-67
2023/12/08 06:33:31;;;;;;;30.60;13.77;;;3.40;99.90;;;;;;6212718;23;20464;-68
2023/12/08 06:35:58;;;;;;;22.90;12.80;;;3.40;99.90;;;;;;6214477;23;20392;-68
2023/12/08 06:38:25;;;;;;;25.07;13.13;;;3.30;99.90;;;;;;6214081;23;20424;-69
2023/12/08 06:40:54;;;;;;;30.43;14.90;;;3.30;99.90;;;;;;6214506;23;20380;-68
2023/12/08 06:43:21;;;;;;;28.20;14.47;;;3.30;99.90;;;;;;6214299;23;20393;-69
2023/12/08 06:45:48;;;;;;;29.93;14.70;;;3.30;99.90;;;;;;6214321;23;20447;-68
2023/12/08 06:48:17;;;;;;;32.30;14.23;;;3.30;99.90;;;;;;6214288;23;20401;-67
2023/12/08 06:50:43;;;;;;;27.83;12.83;;;3.30;99.90;;;;;;6214062;23;20443;-63
2023/12/08 06:53:10;;;;;;;36.53;16.57;;;3.30;99.90;;;;;;6214135;23;20393;-65
2023/12/08 06:55:37;;;;;;;32.50;15.17;;;3.20;99.90;;;;;;6214045;23;20417;-65
2023/12/08 06:58:08;;;;;;;33.57;16.10;;;3.20;99.90;;;;;;6214277;23;20412;-68
2023/12/08 07:00:35;;;;;;;30.70;16.50;;;3.20;99.90;;;;;;6213940;23;20444;-66
2023/12/08 07:03:03;;;;;;;33.90;14.57;;;3.20;99.90;;;;;;6213517;23;20389;-64
2023/12/08 07:05:30;;;;;;;30.57;15.20;;;3.20;99.90;;;;;;6213653;23;20483;-68
2023/12/08 07:07:57;;;;;;;33.23;16.83;;;3.20;99.90;;;;;;6213198;23;20466;-67
2023/12/08 07:10:26;;;;;;;33.57;15.57;;;3.20;99.90;;;;;;6213307;23;20404;-69
2023/12/08 07:12:53;;;;;;;27.67;13.10;;;3.20;99.90;;;;;;6213535;23;20447;-65
2023/12/08 07:15:21;;;;;;;28.83;13.97;;;3.20;99.90;;;;;;6214021;23;20393;-65
2023/12/08 07:17:51;;;;;;;31.63;15.00;;;3.30;99.90;;;;;;6214192;23;20409;-68
2023/12/08 07:20:19;;;;;;;30.43;16.40;;;3.30;99.90;;;;;;6214112;23;20389;-68
2023/12/08 07:22:45;;;;;;;32.37;17.57;;;3.30;99.90;;;;;;6214262;23;20389;-66
2023/12/08 07:25:14;;;;;;;25.73;13.23;;;3.30;99.90;;;;;;6213731;23;20471;-69
2023/12/08 07:27:42;;;;;;;29.00;13.10;;;3.30;99.90;;;;;;6213668;23;20460;-68
2023/12/08 07:30:10;;;;;;;26.00;12.87;;;3.20;99.90;;;;;;6214122;23;20409;-69
2023/12/08 07:32:39;;;;;;;30.00;14.33;;;3.30;99.90;;;;;;6213687;23;20436;-66
2023/12/08 07:35:07;;;;;;;28.20;15.93;;;3.20;99.90;;;;;;6213529;23;20421;-66
2023/12/08 07:37:34;;;;;;;34.93;16.00;;;3.20;99.90;;;;;;6213203;23;20389;-68
2023/12/08 07:40:02;;;;;;;35.93;15.93;;;3.10;99.90;;;;;;6213177;23;20429;-70
2023/12/08 07:42:28;;;;;;;33.47;14.97;;;3.10;99.90;;;;;;6212961;23;20381;-64
2023/12/08 07:44:55;;;;;;;28.13;14.67;;;3.10;99.90;;;;;;6213666;23;20508;-66
2023/12/08 07:47:23;;;;;;;32.50;15.70;;;3.10;99.90;;;;;;6214010;23;20385;-69
2023/12/08 07:49:51;;;;;;;28.07;14.43;;;3.10;99.90;;;;;;6214145;23;20393;-66
2023/12/08 07:52:18;;;;;;;27.00;14.17;;;3.00;99.90;;;;;;6213557;23;20390;-65
2023/12/08 07:54:45;;;;;;;26.27;14.07;;;3.00;99.90;;;;;;6213410;23;20412;-65
2023/12/08 07:57:12;;;;;;;23.67;13.03;;;3.00;99.90;;;;;;6213645;23;20412;-70
2023/12/08 07:59:39;;;;;;;30.73;15.93;;;3.00;99.90;;;;;;6213601;23;20389;-67
2023/12/08 08:02:07;;;;;;;22.90;13.57;;;3.00;99.90;;;;;;6213601;23;20405;-67
2023/12/08 08:04:34;;;;;;;24.77;13.50;;;2.90;99.90;;;;;;6213581;23;20448;-67
2023/12/08 08:07:02;;;;;;;37.50;15.60;;;3.00;99.90;;;;;;6212342;23;20396;-64
2023/12/08 08:09:29;;;;;;;29.00;14.13;;;3.00;99.90;;;;;;6212435;23;20413;-61
2023/12/08 08:11:56;;;;;;;33.83;15.20;;;3.00;99.90;;;;;;6212805;23;20417;-65
2023/12/08 08:14:22;;;;;;;29.50;15.97;;;3.00;99.90;;;;;;6212902;23;20416;-66
2023/12/08 08:16:52;;;;;;;36.77;16.27;;;3.00;99.90;;;;;;6213173;23;20385;-65
2023/12/08 08:19:19;;;;;;;30.30;16.00;;;3.10;99.90;;;;;;6212190;23;20370;-67
2023/12/08 08:21:48;;;;;;;32.73;15.57;;;3.10;99.90;;;;;;6213136;23;20400;-67
2023/12/08 08:24:16;;;;;;;22.93;12.33;;;3.10;99.90;;;;;;6212804;23;20448;-68
2023/12/08 08:26:43;;;;;;;29.60;15.00;;;3.10;99.90;;;;;;6213373;23;20385;-66
2023/12/08 08:29:10;;;;;;;27.57;15.40;;;3.20;99.90;;;;;;6211907;23;20444;-64
2023/12/08 08:31:37;;;;;;;29.80;16.20;;;3.20;99.90;;;;;;6213475;23;20409;-65
2023/12/08 08:34:04;;;;;;;31.33;15.30;;;3.20;99.90;;;;;;6213070;23;20424;-67
2023/12/08 08:36:31;;;;;;;30.43;15.10;;;3.20;99.90;;;;;;6213036;23;20400;-64
2023/12/08 08:38:58;;;;;;;28.47;15.30;;;3.20;99.90;;;;;;6213251;23;20421;-70
2023/12/08 08:41:27;;;;;;;27.47;13.53;;;3.20;99.90;;;;;;6213094;23;20393;-66
2023/12/08 08:43:54;;;;;;;23.30;13.77;;;3.20;99.90;;;;;;6213275;23;20433;-69
2023/12/08 08:46:21;;;;;;;29.60;13.50;;;3.20;99.90;;;;;;6212794;23;20449;-69
2023/12/08 08:48:47;;;;;;;29.63;13.53;;;3.20;99.90;;;;;;6212269;23;20418;-64
2023/12/08 08:51:16;;;;;;;23.50;12.83;;;3.30;99.90;;;;;;6213026;23;20461;-68
2023/12/08 08:53:43;;;;;;;27.87;12.73;;;3.30;99.90;;;;;;6212389;23;20425;-68
2023/12/08 08:56:10;;;;;;;27.57;13.27;;;3.40;99.90;;;;;;6213076;23;20378;-67
2023/12/08 08:58:38;;;;;;;25.93;13.30;;;3.40;99.90;;;;;;6212948;23;20390;-66
2023/12/08 09:01:05;;;;;;;24.00;11.60;;;3.40;99.90;;;;;;6212922;23;20428;-62
2023/12/08 09:03:32;;;;;;;26.90;12.37;;;3.40;99.90;;;;;;6213141;23;20388;-65
2023/12/08 09:05:59;;;;;;;30.20;12.90;;;3.40;99.90;;;;;;6212938;23;20428;-69
2023/12/08 09:08:26;;;;;;;24.03;12.87;;;3.50;99.90;;;;;;6212897;23;20389;-69
2023/12/08 09:10:53;;;;;;;27.87;12.87;;;3.50;99.90;;;;;;6212956;23;20413;-70
2023/12/08 09:13:21;;;;;;;29.90;14.53;;;3.50;99.90;;;;;;6212819;23;20405;-68
2023/12/08 09:15:51;;;;;;;20.13;12.57;;;3.50;99.90;;;;;;6212801;23;20429;-67
2023/12/08 09:18:18;;;;;;;22.57;12.10;;;3.60;99.90;;;;;;6213126;23;20411;-68
2023/12/08 09:20:45;;;;;;;20.13;12.63;;;3.70;99.90;;;;;;6212884;23;20428;-68
2023/12/08 09:23:12;;;;;;;19.70;11.33;;;3.60;99.90;;;;;;6212363;23;20435;-71
2023/12/08 09:25:40;;;;;;;25.93;12.80;;;3.70;99.90;;;;;;6211586;23;20442;-70
2023/12/08 09:28:09;;;;;;;21.27;12.07;;;3.70;99.90;;;;;;6212207;23;20417;-71
2023/12/08 09:30:36;;;;;;;22.40;10.27;;;3.70;99.90;;;;;;6212397;23;20413;-65
2023/12/08 09:33:04;;;;;;;24.90;12.40;;;3.70;99.90;;;;;;6213184;23;20417;-65
2023/12/08 09:35:32;;;;;;;19.07;10.83;;;3.60;99.90;;;;;;6213038;23;20448;-66
2023/12/08 09:38:03;;;;;;;23.17;11.93;;;3.70;99.90;;;;;;6212372;23;20428;-68
2023/12/08 09:40:33;;;;;;;20.60;10.53;;;3.70;99.90;;;;;;6212596;23;20409;-68
2023/12/08 09:43:07;;;;;;;26.80;12.50;;;3.80;99.90;;;;;;6212356;23;20393;-67
2023/12/08 09:45:37;;;;;;;22.50;12.00;;;3.80;99.90;;;;;;6211817;23;20491;-68
2023/12/08 09:48:07;;;;;;;20.83;11.40;;;3.80;99.90;;;;;;6212467;23;20599;-67
2023/12/08 09:50:35;;;;;;;23.60;11.47;;;3.80;99.90;;;;;;6212760;23;20412;-68
2023/12/08 09:53:02;;;;;;;19.83;11.57;;;3.80;99.90;;;;;;6212109;23;20420;-69
2023/12/08 09:55:30;;;;;;;20.30;11.40;;;3.90;99.90;;;;;;6212081;23;20429;-64
2023/12/08 09:57:59;;;;;;;22.30;10.43;;;3.90;99.90;;;;;;6212613;23;20393;-66
2023/12/08 10:00:26;;;;;;;19.77;10.07;;;3.80;99.90;;;;;;6212184;23;20393;-67
2023/12/08 10:02:53;;;;;;;18.30;9.77;;;3.80;99.90;;;;;;6212798;23;20409;-67
2023/12/08 10:05:21;;;;;;;18.47;11.73;;;3.80;99.90;;;;;;6212831;23;20429;-70
2023/12/08 10:07:51;;;;;;;17.13;11.17;;;3.80;99.90;;;;;;6212904;23;20413;-68
2023/12/08 10:10:21;;;;;;;25.23;13.30;;;3.90;99.90;;;;;;6214253;23;20405;-68
2023/12/08 10:12:48;;;;;;;21.47;11.10;;;3.80;99.90;;;;;;6214400;23;20732;-66
2023/12/08 10:15:17;;;;;;;20.13;11.80;;;3.80;99.90;;;;;;6214534;23;20436;-66
2023/12/08 10:17:51;;;;;;;21.50;12.13;;;3.80;99.90;;;;;;6214655;23;20429;-65
2023/12/08 10:20:20;;;;;;;24.67;12.40;;;3.80;99.90;;;;;;6214423;23;20396;-65
2023/12/08 10:22:52;;;;;;;21.30;11.17;;;3.80;99.90;;;;;;6214410;23;20443;-65
2023/12/08 10:25:20;;;;;;;26.07;12.00;;;3.70;99.90;;;;;;6214165;23;20432;-68
2023/12/08 10:27:51;;;;;;;20.17;10.37;;;3.70;99.90;;;;;;6214531;23;20436;-65
2023/12/08 10:30:19;;;;;;;23.47;11.37;;;3.80;99.90;;;;;;6213482;23;20377;-65
2023/12/08 10:32:47;;;;;;;24.97;13.00;;;3.70;99.90;;;;;;6213985;23;20395;-67
2023/12/08 10:35:17;;;;;;;24.77;10.60;;;3.70;99.90;;;;;;6214139;23;20396;-67
2023/12/08 10:37:49;;;;;;;21.87;12.07;;;3.70;99.90;;;;;;6214390;23;20396;-65
2023/12/08 10:40:18;;;;;;;17.50;9.63;;;3.70;99.90;;;;;;6214471;23;20373;-66
2023/12/08 10:55:51;;;;;;;19.03;9.83;;;3.60;99.90;;;;;;6213085;23;20424;-55
2023/12/08 10:58:22;;;;;;;21.70;12.33;;;3.60;99.90;;;;;;6213330;23;20424;-60
2023/12/08 11:00:52;;;;;;;19.73;11.97;;;3.60;99.90;;;;;;6213386;23;20389;-58
2023/12/08 11:03:21;;;;;;;18.10;11.17;;;3.70;99.90;;;;;;6213351;23;20440;-59
2023/12/08 11:05:59;;;;;;;25.90;11.53;;;3.70;99.90;;;;;;6211838;23;20453;-52
2023/12/08 11:08:28;;;;;;;22.90;12.77;;;3.70;99.90;;;;;;6213009;23;20381;-58
2023/12/08 11:10:58;;;;;;;21.33;12.37;;;3.70;99.90;;;;;;6214143;23;20428;-59
2023/12/08 11:13:28;;;;;;;18.87;10.07;;;3.70;99.90;;;;;;6213871;23;20423;-57
2023/12/08 11:16:13;;;;;;;25.13;12.60;;;3.60;99.90;;;;;;6213911;23;20436;-61
2023/12/08 11:18:41;;;;;;;19.67;10.80;;;3.60;99.90;;;;;;6213556;23;20405;-58
2023/12/08 11:21:09;;;;;;;24.97;11.10;;;3.50;99.90;;;;;;6213255;23;20429;-55
2023/12/08 11:23:38;;;;;;;17.63;10.60;;;3.50;99.90;;;;;;6213564;23;20460;-62
2023/12/08 11:26:15;;;;;;;18.57;9.57;;;3.60;99.90;;;;;;6214037;23;20515;-60
2023/12/08 11:28:48;;;;;;;20.40;10.53;;;3.60;99.90;;;;;;6213705;23;20652;-59
2023/12/08 11:31:25;;;;;;;15.93;9.87;;;3.50;99.90;;;;;;6214065;23;20424;-57
2023/12/08 11:33:59;;;;;;;13.13;9.03;;;3.50;99.90;;;;;;6213691;23;20392;-60
2023/12/08 11:36:28;;;;;;;16.67;9.80;;;3.40;99.90;;;;;;6213683;23;20393;-60
2023/12/08 11:38:56;;;;;;;24.07;10.40;;;3.40;99.90;;;;;;6213263;23;20384;-58
2023/12/08 11:41:26;;;;;;;14.93;9.67;;;3.40;99.90;;;;;;6213770;23;20428;-59
2023/12/08 11:43:53;;;;;;;17.20;10.13;;;3.40;99.90;;;;;;6213654;23;20389;-59
2023/12/08 11:46:22;;;;;;;18.53;9.70;;;3.40;99.90;;;;;;6213541;23;20433;-59
2023/12/08 11:48:52;;;;;;;19.53;10.87;;;3.40;99.90;;;;;;6213128;23;20501;-57
2023/12/08 11:51:19;;;;;;;25.87;10.97;;;3.40;99.90;;;;;;6214020;23;20389;-58
2023/12/08 11:53:57;;;;;;;21.37;11.10;;;3.40;99.90;;;;;;6213367;23;20460;-58
2023/12/08 11:56:45;;;;;;;16.40;9.53;;;3.40;99.90;;;;;;6213089;23;20421;-60
2023/12/08 11:59:20;;;;;;;17.03;9.03;;;3.50;99.90;;;;;;6213457;23;20420;-55
2023/12/08 12:01:49;;;;;;;17.40;10.07;;;3.50;99.90;;;;;;6213410;23;20404;-57
2023/12/08 12:04:17;;;;;;;19.53;10.20;;;3.40;99.90;;;;;;6213485;23;20417;-57
2023/12/08 12:06:44;;;;;;;17.37;8.30;;;3.50;99.90;;;;;;6212488;23;20449;-60
2023/12/08 12:09:15;;;;;;;18.33;9.20;;;3.50;99.90;;;;;;6213527;23;20397;-59
2023/12/08 12:11:48;;;;;;;16.13;7.30;;;4.30;99.90;;;;;;6213665;23;20428;-60
2023/12/08 12:14:20;;;;;;;16.70;9.00;;;4.40;99.90;;;;;;6213840;23;20405;-56
2023/12/08 12:16:48;;;;;;;22.37;10.83;;;4.30;99.90;;;;;;6212576;23;20432;-58
2023/12/08 12:19:15;;;;;;;31.17;18.17;;;4.20;99.90;;;;;;6212769;23;20415;-54
2023/12/08 12:21:43;;;;;;;27.10;14.23;;;4.10;99.90;;;;;;6212207;23;20455;-61
2023/12/08 12:24:10;;;;;;;24.27;15.47;;;4.10;99.90;;;;;;6212207;23;20405;-56
2023/12/08 12:26:37;;;;;;;24.93;12.87;;;4.00;99.90;;;;;;6212680;23;20467;-59
2023/12/08 12:29:05;;;;;;;15.77;10.63;;;4.00;99.90;;;;;;6212781;23;20397;-58
2023/12/08 12:31:33;;;;;;;18.60;10.60;;;3.80;99.90;;;;;;6212271;23;20432;-55
2023/12/08 12:34:00;;;;;;;21.53;10.27;;;3.80;99.90;;;;;;6212881;23;20400;-58
2023/12/08 12:36:28;;;;;;;16.53;8.23;;;3.80;99.90;;;;;;6211934;23;20421;-60
2023/12/08 12:38:55;;;;;;;21.70;12.03;;;3.80;99.90;;;;;;6212272;23;20432;-57
2023/12/08 12:41:24;;;;;;;16.70;10.50;;;3.80;99.90;;;;;;6213071;23;20381;-58
2023/12/08 12:43:56;;;;;;;16.33;9.43;;;3.80;99.90;;;;;;6213429;23;20440;-60
2023/12/08 12:46:26;;;;;;;16.63;10.37;;;3.70;99.90;;;;;;6212909;23;20449;-57
2023/12/08 12:48:53;;;;;;;26.47;11.57;;;3.70;99.90;;;;;;6213252;23;20396;-57
2023/12/08 12:51:33;;;;;;;23.17;12.30;;;3.70;99.90;;;;;;6213226;23;20405;-58
2023/12/08 12:54:00;;;;;;;26.10;10.33;;;3.70;99.90;;;;;;6213074;23;20457;-59
2023/12/08 12:56:27;;;;;;;16.33;10.30;;;3.60;99.90;;;;;;6212724;23;20427;-61